Time;durP1;ratioP1;P1;durP2;ratioP2;P2;SDS_P1;SDS_P2;PMS_P1;PMS_P2;Temp;Humidity;BMP_temperature;BMP_pressure;BME280_temperature;BME280_humidity;BME280_pressure;Samples;Min_cycle;Max_cycle;Signal;HPM_P1;HPM_P2
2021/04/30 00:02:16;;;;;;;27.38;16.58;;;6.90;95.30;;;;;;4990108;28;20022;-70
2021/04/30 00:04:42;;;;;;;30.30;17.60;;;6.90;95.30;;;;;;4988057;28;20117;-70
2021/04/30 00:07:07;;;;;;;28.17;17.00;;;6.90;95.30;;;;;;4985401;28;20031;-70
2021/04/30 00:09:33;;;;;;;30.20;15.80;;;6.90;95.30;;;;;;4987344;28;20033;-70
2021/04/30 00:11:59;;;;;;;30.40;16.17;;;6.90;95.30;;;;;;4989888;28;20034;-70
2021/04/30 00:14:25;;;;;;;25.63;14.65;;;7.00;95.30;;;;;;4984774;28;20080;-70
2021/04/30 00:16:52;;;;;;;36.10;16.25;;;6.90;95.30;;;;;;4990624;28;20125;-70
2021/04/30 00:19:19;;;;;;;36.70;18.08;;;6.90;95.30;;;;;;4987600;28;20115;-70
2021/04/30 00:21:45;;;;;;;27.60;16.17;;;7.00;95.30;;;;;;4980621;28;20416;-70
2021/04/30 00:24:12;;;;;;;43.70;18.80;;;6.90;95.30;;;;;;4988792;28;20030;-70
2021/04/30 00:26:38;;;;;;;26.63;16.42;;;7.00;95.30;;;;;;4987187;28;20045;-70
2021/04/30 00:29:04;;;;;;;37.25;17.20;;;6.90;95.30;;;;;;4986795;28;20038;-70
2021/04/30 00:31:29;;;;;;;28.42;14.57;;;7.00;95.40;;;;;;4985082;28;20037;-70
2021/04/30 00:33:56;;;;;;;31.73;17.20;;;6.90;95.40;;;;;;4986864;28;20495;-70
2021/04/30 00:36:22;;;;;;;32.03;16.88;;;6.90;95.40;;;;;;5005416;28;20103;-70
2021/04/30 00:38:47;;;;;;;32.78;16.38;;;6.90;95.50;;;;;;4996881;28;20056;-70
2021/04/30 00:41:13;;;;;;;30.67;16.15;;;6.90;95.80;;;;;;4987139;28;20156;-70
2021/04/30 00:43:39;;;;;;;26.95;15.57;;;7.00;95.50;;;;;;4987985;28;20126;-70
2021/04/30 00:46:04;;;;;;;32.05;15.55;;;6.90;95.50;;;;;;4989812;28;20141;-70
2021/04/30 00:48:30;;;;;;;32.42;14.98;;;6.90;95.50;;;;;;4988638;28;20498;-70
2021/04/30 00:50:55;;;;;;;31.05;16.73;;;7.00;95.60;;;;;;4993985;28;20515;-70
2021/04/30 00:53:21;;;;;;;26.45;15.63;;;7.00;95.60;;;;;;5012899;28;20500;-70
2021/04/30 00:55:47;;;;;;;26.70;15.60;;;7.00;95.70;;;;;;4986087;28;20034;-70
2021/04/30 00:58:12;;;;;;;31.75;16.73;;;7.00;95.70;;;;;;4989966;28;20030;-70
2021/04/30 01:00:38;;;;;;;31.02;14.70;;;7.00;95.80;;;;;;4986176;28;20038;-70
2021/04/30 01:03:09;;;;;;;31.63;13.77;;;7.00;95.80;;;;;;4996872;28;20023;-70
2021/04/30 01:05:36;;;;;;;30.10;13.82;;;7.00;95.70;;;;;;4995694;28;21406;-70
2021/04/30 01:08:02;;;;;;;26.98;14.13;;;7.00;95.80;;;;;;4986739;28;20031;-70
2021/04/30 01:10:28;;;;;;;26.92;14.38;;;7.00;95.80;;;;;;4997337;28;20400;-70
2021/04/30 01:12:53;;;;;;;30.10;15.88;;;7.00;95.80;;;;;;4998862;28;20244;-70
2021/04/30 01:15:19;;;;;;;28.70;15.05;;;7.00;95.80;;;;;;4996866;28;20063;-70
2021/04/30 01:17:46;;;;;;;29.92;15.13;;;6.90;95.80;;;;;;4989041;28;20019;-70
2021/04/30 01:20:13;;;;;;;24.10;14.70;;;6.90;95.80;;;;;;5004074;28;20028;-71
2021/04/30 01:22:51;;;;;;;32.35;16.15;;;6.90;95.80;;;;;;4990017;28;20046;-70
2021/04/30 01:25:25;;;;;;;30.70;15.27;;;6.90;95.80;;;;;;4984279;28;20029;-70
2021/04/30 01:27:51;;;;;;;35.47;15.50;;;7.00;95.80;;;;;;5001909;28;20018;-70
2021/04/30 01:30:19;;;;;;;29.27;14.65;;;6.90;95.80;;;;;;4988550;28;20082;-70
2021/04/30 01:32:45;;;;;;;35.33;15.15;;;7.00;95.80;;;;;;4992839;28;20484;-70
2021/04/30 01:35:11;;;;;;;25.95;15.70;;;7.00;95.80;;;;;;4987261;28;20216;-70
2021/04/30 01:37:37;;;;;;;29.00;15.55;;;7.00;95.80;;;;;;4984766;28;20088;-70
2021/04/30 01:40:13;;;;;;;31.45;15.50;;;7.00;95.70;;;;;;4992788;28;20036;-70
2021/04/30 01:42:58;;;;;;;27.70;12.88;;;7.10;95.70;;;;;;4988251;28;20030;-70
2021/04/30 01:45:24;;;;;;;26.30;13.85;;;7.10;95.70;;;;;;4994667;28;20080;-70
2021/04/30 01:47:50;;;;;;;26.67;14.75;;;7.10;95.70;;;;;;4995444;28;20114;-70
2021/04/30 01:50:15;;;;;;;25.58;14.07;;;7.10;95.70;;;;;;4983514;28;20053;-70
2021/04/30 01:52:41;;;;;;;26.52;13.20;;;7.10;95.70;;;;;;4999321;28;20064;-70
2021/04/30 01:55:07;;;;;;;24.27;13.30;;;7.20;95.70;;;;;;4994902;28;20033;-70
2021/04/30 01:57:34;;;;;;;33.17;14.13;;;7.20;95.70;;;;;;4989650;28;20517;-70
2021/04/30 02:00:00;;;;;;;26.23;12.73;;;7.20;95.60;;;;;;4988407;28;20109;-70
2021/04/30 02:02:25;;;;;;;27.13;12.02;;;7.20;95.60;;;;;;5004165;28;20105;-70
2021/04/30 02:04:51;;;;;;;23.58;12.27;;;7.20;95.60;;;;;;5002458;28;20030;-71
2021/04/30 02:07:16;;;;;;;21.92;10.95;;;7.20;95.60;;;;;;4995216;28;20097;-70
2021/04/30 02:09:42;;;;;;;23.48;10.88;;;7.20;95.60;;;;;;4982916;28;20069;-71
2021/04/30 02:12:08;;;;;;;32.63;11.20;;;7.20;95.60;;;;;;4980865;28;20031;-71
2021/04/30 02:14:34;;;;;;;26.02;11.80;;;7.30;95.60;;;;;;4988301;28;20061;-71
2021/04/30 02:16:59;;;;;;;30.15;11.57;;;7.20;95.50;;;;;;4986301;28;20101;-70
2021/04/30 02:19:25;;;;;;;29.90;11.77;;;7.20;95.50;;;;;;4985771;28;20076;-70
2021/04/30 02:21:50;;;;;;;32.85;11.68;;;7.20;95.50;;;;;;5010712;28;20130;-70
2021/04/30 02:24:16;;;;;;;23.05;11.15;;;7.20;95.50;;;;;;5002834;28;20038;-71
2021/04/30 02:26:41;;;;;;;26.77;11.23;;;7.20;95.50;;;;;;5005347;28;20034;-71
2021/04/30 02:29:07;;;;;;;28.45;11.93;;;7.30;95.50;;;;;;4982116;28;20075;-71
2021/04/30 02:31:32;;;;;;;24.67;11.32;;;7.20;95.50;;;;;;4991235;28;20041;-71
2021/04/30 02:33:58;;;;;;;31.80;11.07;;;7.20;95.50;;;;;;4981646;28;20038;-70
2021/04/30 02:36:23;;;;;;;28.75;11.57;;;7.20;95.50;;;;;;4992604;28;20026;-71
2021/04/30 02:38:49;;;;;;;25.10;11.98;;;7.20;95.50;;;;;;4985553;28;20038;-70
2021/04/30 02:41:15;;;;;;;23.92;10.40;;;7.20;95.50;;;;;;4992314;28;20028;-71
2021/04/30 02:43:40;;;;;;;26.42;11.75;;;7.20;95.50;;;;;;4996431;28;20496;-71
2021/04/30 02:46:06;;;;;;;30.85;12.30;;;7.20;95.50;;;;;;5003026;28;20035;-70
2021/04/30 02:48:37;;;;;;;22.10;10.68;;;7.20;95.50;;;;;;4989382;28;20065;-70
2021/04/30 02:51:05;;;;;;;24.88;12.05;;;7.20;95.50;;;;;;4991631;28;20035;-71
2021/04/30 02:53:30;;;;;;;22.92;11.30;;;7.20;95.50;;;;;;4982171;28;20075;-70
2021/04/30 02:55:56;;;;;;;30.15;13.20;;;7.20;95.50;;;;;;4991910;28;20030;-70
2021/04/30 02:58:22;;;;;;;26.38;11.18;;;7.20;95.50;;;;;;4999056;28;20035;-70
2021/04/30 03:00:48;;;;;;;25.98;11.80;;;7.20;95.50;;;;;;5001204;28;20052;-71
2021/04/30 03:03:14;;;;;;;27.83;11.43;;;7.20;95.50;;;;;;4991557;28;20040;-71
2021/04/30 03:05:41;;;;;;;22.33;10.90;;;7.20;95.50;;;;;;5000507;28;20139;-71
2021/04/30 03:08:06;;;;;;;24.02;11.95;;;7.20;95.50;;;;;;4995476;28;20037;-71
2021/04/30 03:10:32;;;;;;;25.88;11.75;;;7.30;95.60;;;;;;4996259;28;20030;-71
2021/04/30 03:12:57;;;;;;;20.65;10.60;;;7.30;95.50;;;;;;4992565;28;20490;-70
2021/04/30 03:15:26;;;;;;;23.85;11.10;;;7.30;95.60;;;;;;4993700;28;20075;-70
2021/04/30 03:17:52;;;;;;;24.95;11.90;;;7.30;95.60;;;;;;4985312;28;20018;-70
2021/04/30 03:20:18;;;;;;;22.02;10.75;;;7.30;95.50;;;;;;5001536;28;20060;-70
2021/04/30 03:22:45;;;;;;;27.33;12.63;;;7.30;95.50;;;;;;4991926;28;20479;-70
2021/04/30 03:25:12;;;;;;;22.83;11.18;;;7.30;95.60;;;;;;4987126;28;20031;-71
2021/04/30 03:27:38;;;;;;;23.67;11.30;;;7.30;95.60;;;;;;4995070;28;20035;-71
2021/04/30 03:30:05;;;;;;;27.42;10.60;;;7.30;95.60;;;;;;4990074;28;20045;-71
2021/04/30 03:32:31;;;;;;;23.05;10.65;;;7.30;95.50;;;;;;5005393;28;20015;-70
2021/04/30 03:34:56;;;;;;;26.63;11.20;;;7.40;95.50;;;;;;5002371;28;20416;-70
2021/04/30 03:37:22;;;;;;;22.02;10.98;;;7.40;95.50;;;;;;4984027;28;20465;-71
2021/04/30 03:39:48;;;;;;;18.13;10.70;;;7.30;95.50;;;;;;4996181;28;20030;-70
2021/04/30 03:42:14;;;;;;;21.52;11.30;;;7.30;95.50;;;;;;4998564;28;20022;-70
2021/04/30 03:44:40;;;;;;;22.88;10.00;;;7.30;95.50;;;;;;4997278;28;20076;-71
2021/04/30 03:47:05;;;;;;;20.05;10.18;;;7.30;95.50;;;;;;4996281;28;20419;-70
2021/04/30 03:49:31;;;;;;;23.13;10.63;;;7.30;95.50;;;;;;4992058;28;20026;-70
2021/04/30 03:51:56;;;;;;;26.15;10.48;;;7.40;95.50;;;;;;4983365;28;20031;-70
2021/04/30 03:54:22;;;;;;;27.05;11.07;;;7.30;95.50;;;;;;4987174;28;20035;-70
2021/04/30 03:56:47;;;;;;;22.88;10.50;;;7.30;95.50;;;;;;4996537;28;20023;-70
2021/04/30 03:59:13;;;;;;;25.15;10.73;;;7.30;95.50;;;;;;4991528;28;20027;-69
2021/04/30 04:01:38;;;;;;;23.85;10.85;;;7.40;95.50;;;;;;4996195;28;20034;-70
2021/04/30 04:04:04;;;;;;;31.50;10.98;;;7.40;95.50;;;;;;5015628;28;20038;-70
2021/04/30 04:06:30;;;;;;;23.48;11.60;;;7.30;95.50;;;;;;4998932;28;20487;-70
2021/04/30 04:08:55;;;;;;;32.70;12.75;;;7.30;95.50;;;;;;4981308;28;20431;-70
2021/04/30 04:11:21;;;;;;;28.13;12.27;;;7.30;95.50;;;;;;4992130;28;20572;-70
2021/04/30 04:13:47;;;;;;;34.63;14.25;;;7.30;95.50;;;;;;4996417;28;20102;-70
2021/04/30 04:16:12;;;;;;;28.13;13.07;;;7.30;95.50;;;;;;4997651;28;20023;-70
2021/04/30 04:18:38;;;;;;;31.33;12.45;;;7.30;95.50;;;;;;5001764;28;20016;-69
2021/04/30 04:21:03;;;;;;;26.10;12.35;;;7.30;95.50;;;;;;5005945;28;20522;-70
2021/04/30 04:23:29;;;;;;;24.05;11.30;;;7.30;95.50;;;;;;5002578;28;20491;-70
2021/04/30 04:25:54;;;;;;;32.20;13.15;;;7.30;95.60;;;;;;4987932;28;20022;-69
2021/04/30 04:28:20;;;;;;;29.63;12.50;;;7.30;95.50;;;;;;4982430;28;20058;-70
2021/04/30 04:30:46;;;;;;;32.45;14.68;;;7.30;95.60;;;;;;4987974;28;20304;-70
2021/04/30 04:33:12;;;;;;;35.78;14.52;;;7.30;95.60;;;;;;4980261;28;20042;-70
2021/04/30 04:35:37;;;;;;;27.48;14.18;;;7.30;95.60;;;;;;4981673;28;20022;-70
2021/04/30 04:38:04;;;;;;;33.28;15.27;;;7.30;95.60;;;;;;4987969;28;20438;-69
2021/04/30 04:40:29;;;;;;;29.40;15.98;;;7.40;95.60;;;;;;4993671;28;20026;-69
2021/04/30 04:42:55;;;;;;;31.63;15.32;;;7.40;95.70;;;;;;4985822;28;20049;-69
2021/04/30 04:45:21;;;;;;;30.75;15.50;;;7.40;95.70;;;;;;4996588;28;20395;-70
2021/04/30 04:47:46;;;;;;;38.80;17.35;;;7.50;95.70;;;;;;4984576;28;21109;-70
2021/04/30 04:50:14;;;;;;;30.38;16.85;;;7.50;95.70;;;;;;4983816;28;20034;-70
2021/04/30 04:52:39;;;;;;;36.42;17.90;;;7.50;95.60;;;;;;4982912;28;20034;-69
2021/04/30 04:55:07;;;;;;;33.25;17.52;;;7.50;95.60;;;;;;4978859;28;20234;-70
2021/04/30 04:57:33;;;;;;;34.28;18.73;;;7.50;95.60;;;;;;4987086;28;20110;-70
2021/04/30 04:59:59;;;;;;;38.45;20.38;;;7.50;95.60;;;;;;4984222;28;20598;-69
2021/04/30 05:02:24;;;;;;;40.95;19.55;;;7.50;95.60;;;;;;4989181;28;20023;-70
2021/04/30 05:04:50;;;;;;;32.15;18.05;;;7.60;95.70;;;;;;4982268;28;20049;-70
2021/04/30 05:07:16;;;;;;;43.88;18.90;;;7.50;95.60;;;;;;5001279;28;20048;-70
2021/04/30 05:09:42;;;;;;;42.45;18.95;;;7.60;95.60;;;;;;4982015;28;20261;-70
2021/04/30 05:12:08;;;;;;;47.65;20.60;;;7.60;95.60;;;;;;4982173;28;20038;-70
2021/04/30 05:14:34;;;;;;;40.20;18.77;;;7.60;95.60;;;;;;4990528;28;20027;-71
2021/04/30 05:16:59;;;;;;;37.55;19.20;;;7.60;95.60;;;;;;4989995;28;20034;-70
2021/04/30 05:19:25;;;;;;;42.22;20.02;;;7.60;95.60;;;;;;4998967;28;20023;-70
2021/04/30 05:21:50;;;;;;;36.35;17.83;;;7.60;95.60;;;;;;4990197;28;20042;-70
2021/04/30 05:24:16;;;;;;;38.95;19.23;;;7.70;95.70;;;;;;5006698;28;20041;-70
2021/04/30 05:26:42;;;;;;;37.35;18.50;;;7.70;95.60;;;;;;4990387;28;20022;-70
2021/04/30 05:29:07;;;;;;;32.85;18.20;;;7.70;95.60;;;;;;4989892;28;20029;-70
2021/04/30 05:31:36;;;;;;;41.78;19.63;;;7.70;95.60;;;;;;4990520;28;20532;-70
2021/04/30 05:34:02;;;;;;;35.55;19.02;;;7.70;95.60;;;;;;4989750;28;20035;-70
2021/04/30 05:36:29;;;;;;;38.28;18.77;;;7.80;95.60;;;;;;4988757;28;20030;-70
2021/04/30 05:38:54;;;;;;;34.28;19.88;;;7.80;95.60;;;;;;4982194;28;20032;-70
2021/04/30 05:41:20;;;;;;;36.63;20.88;;;7.90;95.60;;;;;;4987034;28;20090;-70
2021/04/30 05:43:45;;;;;;;42.38;20.88;;;7.90;95.60;;;;;;4991345;28;20031;-71
2021/04/30 05:46:11;;;;;;;37.13;20.75;;;8.00;95.60;;;;;;4996046;28;20034;-69
2021/04/30 05:48:36;;;;;;;38.65;22.20;;;8.00;95.60;;;;;;4986062;28;20284;-69
2021/04/30 05:51:02;;;;;;;36.45;22.60;;;8.00;95.60;;;;;;4986688;28;21463;-69
2021/04/30 05:53:28;;;;;;;38.28;22.73;;;8.00;95.50;;;;;;4995142;28;20053;-69
2021/04/30 05:55:53;;;;;;;39.80;23.00;;;8.10;95.50;;;;;;4992955;28;20387;-70
2021/04/30 05:58:19;;;;;;;49.10;26.40;;;8.00;95.40;;;;;;4995655;28;20034;-69
2021/04/30 06:00:45;;;;;;;42.65;24.92;;;8.00;95.40;;;;;;5039959;28;20030;-70
2021/04/30 06:03:11;;;;;;;45.42;25.98;;;8.00;95.50;;;;;;5093028;28;20458;-69
2021/04/30 06:05:36;;;;;;;41.35;23.38;;;8.00;95.50;;;;;;5011428;28;20058;-69
2021/04/30 06:08:02;;;;;;;47.95;26.25;;;8.00;95.50;;;;;;4987429;28;20073;-70
2021/04/30 06:10:28;;;;;;;41.33;23.48;;;8.00;95.50;;;;;;4990290;28;20456;-70
2021/04/30 06:12:54;;;;;;;40.00;24.67;;;8.00;95.50;;;;;;4983824;28;20038;-70
2021/04/30 06:15:19;;;;;;;49.70;24.98;;;8.00;95.40;;;;;;4990422;28;20029;-70
2021/04/30 06:17:45;;;;;;;43.65;23.25;;;8.00;95.50;;;;;;4999560;28;20030;-71
2021/04/30 06:20:11;;;;;;;44.10;24.75;;;8.00;95.50;;;;;;5001305;28;20022;-70
2021/04/30 06:22:36;;;;;;;35.20;22.95;;;8.00;95.50;;;;;;5035587;28;20090;-70
2021/04/30 06:25:03;;;;;;;45.90;24.02;;;8.00;95.50;;;;;;4991857;28;20062;-71
2021/04/30 06:27:29;;;;;;;44.95;26.17;;;8.00;95.50;;;;;;5042560;28;20433;-70
2021/04/30 06:29:55;;;;;;;40.55;25.63;;;8.00;95.50;;;;;;5027680;28;20028;-70
2021/04/30 06:32:20;;;;;;;46.50;26.13;;;8.10;95.50;;;;;;5020351;28;20093;-71
2021/04/30 06:34:46;;;;;;;43.65;26.98;;;8.10;95.50;;;;;;5027799;28;20484;-70
2021/04/30 06:37:11;;;;;;;54.28;29.55;;;8.10;95.50;;;;;;5022761;28;20390;-71
2021/04/30 06:39:38;;;;;;;43.67;26.05;;;8.10;95.50;;;;;;5006286;28;20022;-70
2021/04/30 06:42:04;;;;;;;42.65;26.30;;;8.20;95.50;;;;;;5023816;28;20029;-70
2021/04/30 06:44:30;;;;;;;47.30;27.13;;;8.20;95.40;;;;;;4991169;28;20026;-70
2021/04/30 06:46:56;;;;;;;50.78;29.35;;;8.30;95.40;;;;;;5036700;28;20048;-70
2021/04/30 06:49:22;;;;;;;46.90;27.52;;;8.30;95.50;;;;;;5093832;28;20024;-71
2021/04/30 06:51:49;;;;;;;47.25;29.08;;;8.30;95.50;;;;;;4997536;28;20098;-70
2021/04/30 06:54:15;;;;;;;52.35;29.33;;;8.40;95.50;;;;;;5019991;28;20393;-70
2021/04/30 06:56:41;;;;;;;48.92;29.17;;;8.60;95.50;;;;;;5015781;28;20101;-70
2021/04/30 06:59:06;;;;;;;46.67;28.38;;;8.70;95.50;;;;;;4990801;28;20113;-70
2021/04/30 07:01:32;;;;;;;53.00;30.02;;;8.80;95.20;;;;;;4985569;28;20523;-70
2021/04/30 07:03:57;;;;;;;51.80;29.67;;;8.90;95.10;;;;;;4997587;28;20026;-70
2021/04/30 07:06:23;;;;;;;50.72;30.63;;;9.00;95.10;;;;;;4972239;28;20027;-70
2021/04/30 07:08:50;;;;;;;46.60;30.42;;;9.10;95.00;;;;;;4970721;28;20030;-70
2021/04/30 07:11:16;;;;;;;53.88;30.17;;;9.10;94.90;;;;;;4971880;28;20026;-70
2021/04/30 07:13:41;;;;;;;52.60;30.70;;;9.10;94.70;;;;;;5051531;28;20028;-70
2021/04/30 07:16:07;;;;;;;50.70;29.80;;;9.10;94.60;;;;;;5022838;28;20022;-70
2021/04/30 07:18:33;;;;;;;51.72;30.67;;;9.00;94.70;;;;;;4971785;28;20037;-70
2021/04/30 07:20:59;;;;;;;59.30;32.70;;;9.00;94.70;;;;;;4970264;28;20043;-70
2021/04/30 07:23:25;;;;;;;65.82;33.78;;;9.00;94.80;;;;;;4985290;28;20425;-69
2021/04/30 07:25:51;;;;;;;52.70;30.27;;;9.10;94.80;;;;;;5074280;28;20020;-70
2021/04/30 07:28:16;;;;;;;45.63;30.13;;;9.10;94.80;;;;;;5093120;28;20375;-71
2021/04/30 07:30:43;;;;;;;49.20;31.45;;;9.10;94.80;;;;;;5066468;28;20058;-70
2021/04/30 07:33:08;;;;;;;56.35;34.30;;;9.10;94.80;;;;;;4986592;28;20117;-70
2021/04/30 07:35:34;;;;;;;54.00;31.38;;;9.10;94.70;;;;;;4995089;28;20567;-70
2021/04/30 07:37:59;;;;;;;52.75;32.45;;;9.10;94.60;;;;;;5011219;28;20031;-70
2021/04/30 07:40:25;;;;;;;61.78;34.22;;;9.10;94.70;;;;;;5005762;28;20022;-70
2021/04/30 07:42:51;;;;;;;46.65;31.92;;;9.20;94.80;;;;;;5012206;28;20030;-70
2021/04/30 07:45:16;;;;;;;49.67;32.72;;;9.30;94.70;;;;;;4995728;28;20110;-69
2021/04/30 07:47:43;;;;;;;42.47;30.05;;;9.30;94.60;;;;;;5020776;28;20027;-71
2021/04/30 07:50:08;;;;;;;50.58;31.95;;;9.40;94.60;;;;;;4992833;28;20034;-68
2021/04/30 07:52:34;;;;;;;48.72;29.75;;;9.50;94.60;;;;;;4992460;28;20037;-68
2021/04/30 07:55:03;;;;;;;42.42;30.08;;;9.50;94.40;;;;;;5060833;28;20023;-68
2021/04/30 07:57:29;;;;;;;49.35;31.08;;;9.50;94.40;;;;;;4992210;28;20034;-68
2021/04/30 07:59:55;;;;;;;45.75;31.08;;;9.60;94.30;;;;;;4993291;28;20442;-70
2021/04/30 08:02:21;;;;;;;43.55;28.25;;;9.60;94.20;;;;;;5000785;28;20137;-71
2021/04/30 08:04:47;;;;;;;48.35;29.00;;;9.60;94.10;;;;;;5040426;28;20032;-70
2021/04/30 08:07:14;;;;;;;53.15;30.52;;;9.60;94.00;;;;;;5080956;28;20050;-71
2021/04/30 08:09:40;;;;;;;43.20;28.05;;;9.70;94.20;;;;;;4992458;28;20096;-71
2021/04/30 08:12:06;;;;;;;41.03;27.63;;;9.80;94.10;;;;;;4993765;28;20038;-70
2021/04/30 08:14:31;;;;;;;47.45;28.85;;;9.90;93.90;;;;;;5007876;28;20507;-70
2021/04/30 08:16:57;;;;;;;41.58;28.70;;;9.90;93.80;;;;;;4988037;28;20029;-70
2021/04/30 08:19:24;;;;;;;41.25;27.10;;;10.00;93.80;;;;;;4989488;28;20361;-69
2021/04/30 08:21:49;;;;;;;43.28;28.65;;;10.10;93.70;;;;;;4992329;28;20077;-70
2021/04/30 08:24:15;;;;;;;44.63;26.38;;;10.10;93.40;;;;;;4993610;28;20061;-70
2021/04/30 08:26:41;;;;;;;38.92;26.70;;;10.10;93.30;;;;;;4991677;28;20038;-69
2021/04/30 08:29:06;;;;;;;42.03;26.80;;;10.20;93.40;;;;;;5091609;28;20023;-70
2021/04/30 08:31:32;;;;;;;39.15;26.30;;;10.20;93.30;;;;;;5050030;28;20034;-70
2021/04/30 08:33:57;;;;;;;38.33;25.42;;;10.30;93.20;;;;;;5004471;28;20046;-69
2021/04/30 08:36:23;;;;;;;40.45;26.65;;;10.30;93.00;;;;;;5069190;28;20476;-69
2021/04/30 08:38:49;;;;;;;36.05;25.55;;;10.30;92.90;;;;;;5017749;28;20477;-69
2021/04/30 08:41:17;;;;;;;40.70;27.20;;;10.30;93.00;;;;;;5096221;28;20470;-70
2021/04/30 08:43:43;;;;;;;38.80;27.08;;;10.40;92.80;;;;;;5095932;28;20389;-70
2021/04/30 08:46:12;;;;;;;37.38;25.70;;;10.40;92.70;;;;;;5021332;28;20062;-70
2021/04/30 08:48:37;;;;;;;36.40;26.33;;;10.40;92.60;;;;;;5096064;28;20035;-69
2021/04/30 08:51:03;;;;;;;36.05;25.02;;;10.40;92.60;;;;;;5094701;28;20028;-70
2021/04/30 08:53:28;;;;;;;36.58;25.27;;;10.40;92.60;;;;;;5094570;28;20024;-69
2021/04/30 08:55:55;;;;;;;35.80;25.83;;;10.50;92.60;;;;;;5026504;28;20056;-69
2021/04/30 08:58:27;;;;;;;38.85;27.20;;;10.60;92.50;;;;;;4992789;28;20056;-69
2021/04/30 09:00:56;;;;;;;35.03;26.27;;;10.60;92.40;;;;;;4993082;28;20026;-69
2021/04/30 09:03:22;;;;;;;32.88;23.38;;;10.70;92.40;;;;;;4993042;28;20030;-69
2021/04/30 09:05:50;;;;;;;37.80;25.88;;;10.70;92.30;;;;;;4999662;28;20034;-69
2021/04/30 09:08:17;;;;;;;38.92;24.98;;;10.80;92.30;;;;;;5035479;28;20041;-69
2021/04/30 09:10:49;;;;;;;31.88;23.35;;;10.90;92.10;;;;;;4982322;28;20480;-69
2021/04/30 09:13:20;;;;;;;31.65;24.00;;;10.90;91.90;;;;;;4992646;28;20026;-69
2021/04/30 09:15:48;;;;;;;28.48;23.52;;;10.90;91.70;;;;;;4978221;28;20066;-69
2021/04/30 09:18:28;;;;;;;33.22;24.27;;;10.80;91.70;;;;;;4982960;28;20050;-69
2021/04/30 09:21:06;;;;;;;31.17;23.00;;;10.90;91.70;;;;;;4991499;28;20046;-69
2021/04/30 09:23:39;;;;;;;29.02;21.88;;;10.90;91.60;;;;;;4992545;28;20040;-69
2021/04/30 09:26:25;;;;;;;27.45;21.35;;;10.90;91.50;;;;;;4998786;28;20101;-69
2021/04/30 09:29:01;;;;;;;29.42;22.17;;;10.90;91.40;;;;;;4973292;28;20034;-69
2021/04/30 09:31:42;;;;;;;30.77;21.92;;;10.90;91.30;;;;;;4972130;28;20034;-69
2021/04/30 09:34:18;;;;;;;27.90;20.65;;;10.90;91.30;;;;;;4972751;28;20069;-69
2021/04/30 09:37:14;;;;;;;29.63;20.83;;;10.90;91.20;;;;;;5065153;28;20022;-69
2021/04/30 09:39:53;;;;;;;22.85;17.20;;;10.90;91.20;;;;;;4984380;28;20035;-69
2021/04/30 09:42:21;;;;;;;22.90;17.52;;;10.80;91.20;;;;;;4972833;28;20540;-68
2021/04/30 09:44:49;;;;;;;22.55;16.80;;;10.80;91.20;;;;;;5083410;28;20036;-68
2021/04/30 09:47:24;;;;;;;18.23;13.02;;;10.80;91.20;;;;;;5086218;28;20490;-68
2021/04/30 09:49:53;;;;;;;15.77;10.55;;;10.70;91.00;;;;;;4991072;28;20029;-68
2021/04/30 09:52:20;;;;;;;11.07;8.63;;;10.60;90.90;;;;;;4992259;28;20471;-68
2021/04/30 09:54:47;;;;;;;12.57;9.55;;;10.40;90.90;;;;;;4991950;28;20027;-68
2021/04/30 09:57:22;;;;;;;12.18;8.98;;;10.40;91.10;;;;;;5012363;28;20470;-69
2021/04/30 10:00:13;;;;;;;16.00;11.48;;;10.40;91.10;;;;;;4972891;28;20438;-68
2021/04/30 10:02:39;;;;;;;13.38;10.20;;;10.50;91.00;;;;;;4971138;28;20033;-68
2021/04/30 10:05:12;;;;;;;16.75;10.95;;;10.50;91.00;;;;;;4972476;28;20023;-68
2021/04/30 10:07:39;;;;;;;19.98;14.05;;;10.70;90.90;;;;;;4972874;28;20027;-68
2021/04/30 10:10:12;;;;;;;20.98;16.00;;;10.90;90.80;;;;;;5003477;28;20038;-68
2021/04/30 10:12:39;;;;;;;22.90;16.55;;;11.00;90.70;;;;;;4992066;28;20036;-68
2021/04/30 10:15:09;;;;;;;23.20;18.40;;;11.10;90.60;;;;;;4990510;28;20038;-68
2021/04/30 10:17:36;;;;;;;24.77;18.27;;;11.20;90.50;;;;;;4990766;28;20110;-68
2021/04/30 10:20:03;;;;;;;26.25;17.30;;;11.30;90.50;;;;;;4991423;28;20091;-68
2021/04/30 10:22:29;;;;;;;25.73;16.58;;;11.50;90.20;;;;;;4980205;28;20125;-68
2021/04/30 10:24:59;;;;;;;26.77;17.38;;;11.50;90.00;;;;;;4980440;28;20093;-68
2021/04/30 10:27:36;;;;;;;23.35;16.35;;;11.60;89.60;;;;;;4989495;28;20038;-68
2021/04/30 10:30:05;;;;;;;24.40;15.98;;;11.80;89.50;;;;;;4992856;28;20030;-68
2021/04/30 10:32:56;;;;;;;21.58;13.77;;;11.90;89.00;;;;;;4982500;28;20026;-69
2021/04/30 10:35:32;;;;;;;20.98;14.13;;;12.00;88.90;;;;;;4975874;28;20053;-68
2021/04/30 10:38:02;;;;;;;23.35;14.60;;;12.30;88.60;;;;;;4991111;28;20034;-69
2021/04/30 10:40:27;;;;;;;24.10;15.48;;;12.40;87.90;;;;;;4988220;28;20487;-68
2021/04/30 10:42:53;;;;;;;22.27;14.73;;;12.60;87.30;;;;;;4990979;28;20026;-68
2021/04/30 10:45:19;;;;;;;22.85;14.50;;;12.70;86.90;;;;;;4995824;28;20076;-68
2021/04/30 10:48:05;;;;;;;20.25;12.93;;;12.90;86.10;;;;;;5002284;28;20034;-68
2021/04/30 10:50:31;;;;;;;19.10;12.38;;;13.00;85.30;;;;;;4980580;28;20023;-68
2021/04/30 10:53:24;;;;;;;20.15;12.80;;;13.00;84.10;;;;;;4991329;28;20468;-68
2021/04/30 10:55:50;;;;;;;20.50;12.13;;;12.90;83.70;;;;;;4984299;28;20030;-68
2021/04/30 10:58:36;;;;;;;17.90;10.75;;;12.90;84.10;;;;;;5023550;28;20038;-68
2021/04/30 11:01:32;;;;;;;15.30;9.88;;;13.00;83.30;;;;;;5093632;28;20363;-68
2021/04/30 11:04:13;;;;;;;14.40;9.77;;;13.20;83.10;;;;;;5027169;28;20026;-69
2021/04/30 11:06:46;;;;;;;14.45;9.30;;;13.40;82.90;;;;;;4973622;28;20039;-68
2021/04/30 11:09:20;;;;;;;13.88;9.02;;;13.60;82.30;;;;;;4971728;28;20053;-68
2021/04/30 11:11:46;;;;;;;13.00;8.77;;;13.70;81.70;;;;;;4989738;28;20132;-68
2021/04/30 11:14:22;;;;;;;12.00;9.18;;;13.70;81.00;;;;;;4977557;28;20042;-68
2021/04/30 11:16:50;;;;;;;11.15;7.55;;;13.80;81.00;;;;;;5008177;28;20046;-69
2021/04/30 11:19:16;;;;;;;12.30;8.98;;;13.80;80.20;;;;;;4990871;28;20033;-69
2021/04/30 11:21:50;;;;;;;12.93;10.38;;;13.80;79.80;;;;;;4990875;28;20042;-69
2021/04/30 11:24:36;;;;;;;13.57;8.80;;;13.90;79.90;;;;;;4990994;28;20036;-69
2021/04/30 11:27:27;;;;;;;11.60;8.27;;;14.00;79.60;;;;;;4990838;28;20101;-69
2021/04/30 11:30:19;;;;;;;14.40;8.82;;;14.10;79.00;;;;;;4971527;28;20100;-69
2021/04/30 11:32:53;;;;;;;10.73;8.75;;;14.30;78.90;;;;;;4986731;28;20034;-69
2021/04/30 11:35:20;;;;;;;14.55;10.13;;;14.40;77.90;;;;;;4974953;28;20035;-69
2021/04/30 11:37:48;;;;;;;9.73;8.02;;;14.40;77.30;;;;;;5059954;28;20020;-69
2021/04/30 11:40:15;;;;;;;11.32;8.80;;;14.50;77.60;;;;;;5014344;28;20054;-69
2021/04/30 11:42:41;;;;;;;13.85;10.35;;;14.70;77.10;;;;;;5064196;28;20025;-69
2021/04/30 11:45:08;;;;;;;11.10;9.25;;;14.80;76.10;;;;;;5093019;28;20043;-69
2021/04/30 11:47:35;;;;;;;12.00;8.88;;;14.80;75.30;;;;;;5070092;28;20385;-69
2021/04/30 11:50:02;;;;;;;12.90;9.30;;;14.80;74.80;;;;;;5023654;28;20024;-69
2021/04/30 11:52:38;;;;;;;11.20;9.63;;;14.80;74.50;;;;;;5026876;28;20495;-69
2021/04/30 11:55:07;;;;;;;12.63;10.38;;;14.80;74.50;;;;;;5003408;28;20023;-70
2021/04/30 11:57:33;;;;;;;11.88;9.77;;;14.70;74.20;;;;;;4987418;28;20023;-70
2021/04/30 11:59:59;;;;;;;15.50;9.98;;;14.70;74.40;;;;;;4989273;28;20045;-69
2021/04/30 12:02:26;;;;;;;11.35;9.85;;;14.50;72.60;;;;;;4989865;28;20027;-69
2021/04/30 12:04:54;;;;;;;12.80;9.70;;;14.10;74.30;;;;;;4984847;28;20022;-69
2021/04/30 12:07:22;;;;;;;11.48;8.60;;;14.10;75.10;;;;;;4989955;28;20034;-69
2021/04/30 12:09:47;;;;;;;11.63;9.48;;;14.00;74.60;;;;;;4989196;28;20118;-69
2021/04/30 12:12:27;;;;;;;14.23;10.93;;;13.80;74.10;;;;;;4990417;28;20109;-69
2021/04/30 12:15:02;;;;;;;16.17;11.27;;;13.50;74.60;;;;;;4990675;28;20527;-69
2021/04/30 12:17:36;;;;;;;12.18;10.70;;;13.60;76.10;;;;;;4988480;28;20034;-69
2021/04/30 12:20:34;;;;;;;11.63;10.02;;;13.70;76.20;;;;;;4971063;28;20034;-69
2021/04/30 12:23:02;;;;;;;19.08;11.05;;;13.90;75.80;;;;;;4982614;28;20034;-68
2021/04/30 12:25:45;;;;;;;13.05;11.10;;;14.00;75.40;;;;;;4989795;28;20030;-69
2021/04/30 12:28:28;;;;;;;17.45;11.75;;;14.00;74.30;;;;;;4992230;28;20155;-68
2021/04/30 12:31:08;;;;;;;16.25;11.68;;;13.90;74.20;;;;;;4993848;28;20026;-69
2021/04/30 12:33:41;;;;;;;16.17;12.63;;;14.10;74.30;;;;;;5017174;28;20036;-68
2021/04/30 12:36:06;;;;;;;;;;;14.10;74.20;;;;;;5022328;28;20074;-68
2021/04/30 12:38:33;;;;;;;17.45;13.02;;;14.10;73.60;;;;;;4993635;28;19913;-69
2021/04/30 12:41:26;;;;;;;16.80;12.70;;;13.80;73.00;;;;;;4992338;28;20080;-69